createdAt,value
2022-09-17T00:01:40.229Z,99292.19
2022-09-17T00:04:11.138Z,99297.72
2022-09-17T00:06:38.650Z,99297.28
2022-09-17T00:09:07.674Z,99300.97
2022-09-17T00:11:39.297Z,99297.28
2022-09-17T00:14:09.189Z,99307.53
2022-09-17T00:16:39.397Z,99302.38
2022-09-17T00:19:10.060Z,99304.47
2022-09-17T00:21:37.531Z,99310.38
2022-09-17T00:24:06.696Z,99312.03
2022-09-17T00:26:36.635Z,99312.84
2022-09-17T00:29:04.841Z,99307.44
2022-09-17T00:31:33.030Z,99309.63
2022-09-17T00:34:01.867Z,99313.31
2022-09-17T00:36:29.490Z,99312.28
2022-09-17T00:38:59.282Z,99313.72
2022-09-17T00:41:28.205Z,99323.00
2022-09-17T00:43:59.462Z,99318.69
2022-09-17T00:46:32.767Z,99321.56
2022-09-17T00:49:04.231Z,99318.47
2022-09-17T00:51:35.685Z,99316.41
2022-09-17T00:54:04.986Z,99314.53
2022-09-17T00:56:34.109Z,99315.13
2022-09-17T00:59:03.745Z,99312.84
2022-09-17T01:01:31.596Z,99315.91
2022-09-17T01:03:59.326Z,99311.22
2022-09-17T01:06:33.420Z,99316.75
2022-09-17T01:09:11.521Z,99326.13
2022-09-17T01:11:53.878Z,99332.28
2022-09-17T01:14:35.848Z,99321.25
2022-09-17T01:17:09.112Z,99319.59
2022-09-17T01:20:05.129Z,99321.06
2022-09-17T01:22:34.998Z,99321.50
2022-09-17T01:25:17.971Z,99325.97
2022-09-17T01:28:12.386Z,99333.56
2022-09-17T01:30:55.660Z,99330.44
2022-09-17T01:33:28.667Z,99329.63
2022-09-17T01:36:03.769Z,99323.91
2022-09-17T01:38:34.473Z,99335.78
2022-09-17T01:41:07.688Z,99330.84
2022-09-17T01:43:39.241Z,99338.19
2022-09-17T01:46:11.268Z,99340.22
2022-09-17T01:48:42.950Z,99333.63
2022-09-17T01:51:12.687Z,99338.31
2022-09-17T01:53:44.394Z,99346.28
2022-09-17T01:56:16.298Z,99346.66
2022-09-17T01:58:46.091Z,99341.78
2022-09-17T02:01:17.389Z,99348.56
2022-09-17T02:03:49.267Z,99350.22
2022-09-17T02:06:19.205Z,99355.25
2022-09-17T02:08:49.516Z,99347.56
2022-09-17T02:11:17.279Z,99344.94
2022-09-17T02:13:46.109Z,99352.06
2022-09-17T02:16:17.936Z,99344.47
2022-09-17T02:18:47.895Z,99345.06
2022-09-17T02:21:18.473Z,99345.28
2022-09-17T02:23:54.171Z,99342.72
2022-09-17T02:26:22.128Z,99338.78
2022-09-17T02:28:52.679Z,99340.78
2022-09-17T02:31:22.708Z,99346.41
2022-09-17T02:33:53.915Z,99345.53
2022-09-17T02:36:23.710Z,99352.28
2022-09-17T02:38:59.017Z,99355.47
2022-09-17T02:41:32.886Z,99358.28
2022-09-17T02:44:11.803Z,99363.22
2022-09-17T02:46:52.010Z,99362.38
2022-09-17T02:49:28.686Z,99362.69
2022-09-17T02:52:04.451Z,99364.53
2022-09-17T02:54:36.277Z,99363.38
2022-09-17T02:57:10.137Z,99369.09
2022-09-17T02:59:42.996Z,99366.84
2022-09-17T03:02:18.387Z,99365.19
2022-09-17T03:04:47.351Z,99364.22
2022-09-17T03:07:15.046Z,99364.19
2022-09-17T03:09:43.330Z,99364.19
2022-09-17T03:12:11.237Z,99357.19
2022-09-17T03:14:38.651Z,99356.31
2022-09-17T03:17:06.205Z,99355.09
2022-09-17T03:19:35.016Z,99359.16
2022-09-17T03:22:02.513Z,99359.78
2022-09-17T03:24:29.961Z,99352.19
2022-09-17T03:26:57.354Z,99355.59
2022-09-17T03:29:25.441Z,99357.72
2022-09-17T03:31:52.943Z,99362.59
2022-09-17T03:34:20.873Z,99361.81
2022-09-17T03:36:49.653Z,99364.22
2022-09-17T03:39:17.110Z,99373.03
2022-09-17T03:41:44.565Z,99372.31
2022-09-17T03:44:12.081Z,99369.38
2022-09-17T03:46:40.381Z,99376.44
2022-09-17T03:49:08.910Z,99374.16
2022-09-17T03:51:36.471Z,99381.09
2022-09-17T03:54:05.250Z,99385.41
2022-09-17T03:56:32.649Z,99378.75
2022-09-17T03:59:00.296Z,99386.34
2022-09-17T04:01:28.683Z,99388.34
2022-09-17T04:03:56.485Z,99396.69
2022-09-17T04:06:23.990Z,99398.34
2022-09-17T04:08:51.506Z,99396.31
2022-09-17T04:11:20.294Z,99393.97
2022-09-17T04:13:47.785Z,99392.56
2022-09-17T04:16:15.983Z,99394.69
2022-09-17T04:18:43.522Z,99397.34
2022-09-17T04:21:10.973Z,99410.25
2022-09-17T04:23:38.397Z,99408.50
2022-09-17T04:26:06.061Z,99416.94
2022-09-17T04:28:34.822Z,99412.97
2022-09-17T04:31:02.355Z,99414.28
2022-09-17T04:33:29.809Z,99419.94
2022-09-17T04:35:57.204Z,99412.44
2022-09-17T04:38:24.702Z,99419.22
2022-09-17T04:40:52.170Z,99418.28
2022-09-17T04:43:19.603Z,99418.47
2022-09-17T04:45:49.231Z,99416.91
2022-09-17T04:48:16.718Z,99417.84
2022-09-17T04:50:44.163Z,99415.81
2022-09-17T04:53:12.457Z,99418.00
2022-09-17T04:55:39.887Z,99416.91
2022-09-17T04:58:07.311Z,99421.22
2022-09-17T05:00:35.249Z,99422.41
2022-09-17T05:03:04.573Z,99422.41
2022-09-17T05:05:32.004Z,99415.72
2022-09-17T05:07:59.443Z,99418.19
2022-09-17T05:10:27.066Z,99428.50
2022-09-17T05:12:56.051Z,99437.69
2022-09-17T05:15:24.713Z,99426.41
2022-09-17T05:17:52.141Z,99427.25
2022-09-17T05:20:20.957Z,99432.09
2022-09-17T05:22:49.659Z,99438.38
2022-09-17T05:25:18.636Z,99442.06
2022-09-17T05:27:46.102Z,99442.09
2022-09-17T05:30:13.976Z,99439.44
2022-09-17T05:32:41.598Z,99442.22
2022-09-17T05:35:10.251Z,99434.53
2022-09-17T05:37:39.277Z,99437.13
2022-09-17T05:40:08.747Z,99440.16
2022-09-17T05:42:36.371Z,99458.53
2022-09-17T05:45:04.369Z,99445.44
2022-09-17T05:47:31.879Z,99446.88
2022-09-17T05:49:59.686Z,99448.28
2022-09-17T05:52:28.727Z,99457.97
2022-09-17T05:54:57.595Z,99457.81
2022-09-17T05:57:25.594Z,99459.84
2022-09-17T05:59:53.021Z,99464.16
2022-09-17T06:02:20.542Z,99462.41
2022-09-17T06:04:48.049Z,99465.63
2022-09-17T06:07:15.499Z,99468.66
2022-09-17T06:09:42.921Z,99469.03
2022-09-17T06:12:11.725Z,99459.75
2022-09-17T06:14:39.149Z,99473.06
2022-09-17T06:17:06.569Z,99470.59
2022-09-17T06:19:33.997Z,99475.44
2022-09-17T06:22:01.704Z,99481.13
2022-09-17T06:24:29.246Z,99476.44
2022-09-17T06:26:56.692Z,99481.63
2022-09-17T06:29:25.520Z,99494.06
2022-09-17T06:31:54.019Z,99487.13
2022-09-17T06:34:21.562Z,99493.78
2022-09-17T06:36:49.742Z,99495.50
2022-09-17T06:39:17.338Z,99492.84
2022-09-17T06:41:45.557Z,99487.06
2022-09-17T06:44:13.034Z,99486.59
2022-09-17T06:46:42.939Z,99489.50
2022-09-17T06:49:11.586Z,99495.59
2022-09-17T06:51:38.986Z,99490.91
2022-09-17T06:54:06.527Z,99487.53
2022-09-17T06:56:34.512Z,99468.41
2022-09-17T06:59:02.217Z,99486.50
2022-09-17T07:01:29.938Z,99493.59
2022-09-17T07:03:59.952Z,99482.66
2022-09-17T07:06:27.413Z,99489.28
2022-09-17T07:08:54.928Z,99484.00
2022-09-17T07:11:22.365Z,99489.44
2022-09-17T07:13:49.854Z,99486.84
2022-09-17T07:16:17.479Z,99492.09
2022-09-17T07:18:45.057Z,99495.84
2022-09-17T07:21:14.512Z,99491.34
2022-09-17T07:23:42.859Z,99487.88
2022-09-17T07:26:14.672Z,99488.53
2022-09-17T07:28:43.596Z,99484.78
2022-09-17T07:31:16.139Z,99485.63
2022-09-17T07:33:45.095Z,99495.75
2022-09-17T07:36:15.451Z,99487.94
2022-09-17T07:38:42.965Z,99478.47
2022-09-17T07:41:13.343Z,99476.50
2022-09-17T07:43:40.831Z,99476.09
2022-09-17T07:46:10.145Z,99482.25
2022-09-17T07:48:37.846Z,99475.84
2022-09-17T07:51:05.541Z,99480.59
2022-09-17T07:53:34.297Z,99479.72
2022-09-17T07:56:02.714Z,99472.53
2022-09-17T07:58:31.473Z,99477.88
2022-09-17T08:01:03.040Z,99480.31
2022-09-17T08:03:30.571Z,99479.31
2022-09-17T08:06:03.858Z,99474.00
2022-09-17T08:08:34.023Z,99478.06
2022-09-17T08:11:02.946Z,99483.22
2022-09-17T08:13:33.514Z,99481.97
2022-09-17T08:16:01.773Z,99476.81
2022-09-17T08:18:29.885Z,99478.88
2022-09-17T08:20:58.090Z,99478.75
2022-09-17T08:23:25.704Z,99475.84
2022-09-17T08:25:55.381Z,99479.13
2022-09-17T08:28:22.915Z,99470.50
2022-09-17T08:30:50.438Z,99465.56
2022-09-17T08:33:18.150Z,99467.81
2022-09-17T08:35:52.077Z,99475.03
2022-09-17T08:38:19.728Z,99469.69
2022-09-17T08:40:57.404Z,99465.97
2022-09-17T08:43:25.899Z,99483.06
2022-09-17T08:45:54.939Z,99475.84
2022-09-17T08:48:22.899Z,99473.53
2022-09-17T08:50:50.851Z,99471.88
2022-09-17T08:53:34.947Z,99474.69
2022-09-17T08:56:09.516Z,99479.00
2022-09-17T08:58:58.726Z,99470.03
2022-09-17T09:01:35.658Z,99474.41
2022-09-17T09:04:31.126Z,99470.28
2022-09-17T09:07:02.482Z,99472.84
2022-09-17T09:09:34.581Z,99473.25
2022-09-17T09:12:06.527Z,99472.94
2022-09-17T09:14:37.157Z,99480.66
2022-09-17T09:17:09.017Z,99474.91
2022-09-17T09:19:45.013Z,99456.00
2022-09-17T09:22:24.394Z,99468.50
2022-09-17T09:25:00.358Z,99465.19
2022-09-17T09:27:29.879Z,99462.50
2022-09-17T09:30:03.840Z,99459.28
2022-09-17T09:32:45.259Z,99463.41
2022-09-17T09:35:18.849Z,99464.56
2022-09-17T09:37:53.554Z,99461.25
2022-09-17T09:40:27.177Z,99465.72
2022-09-17T09:42:57.467Z,99470.78
2022-09-17T09:45:33.450Z,99470.28
2022-09-17T09:48:04.511Z,99476.66
2022-09-17T09:51:04.719Z,99484.06
2022-09-17T09:53:32.601Z,99472.66
2022-09-17T09:56:07.409Z,99469.03
2022-09-17T09:58:38.411Z,99469.59
2022-09-17T10:01:12.522Z,99467.09
2022-09-17T10:03:45.869Z,99467.72
2022-09-17T10:06:14.448Z,99468.03
2022-09-17T10:08:43.610Z,99461.34
2022-09-17T10:11:21.526Z,99466.63
2022-09-17T10:13:50.459Z,99472.00
2022-09-17T10:16:21.184Z,99469.41
2022-09-17T10:18:49.508Z,99464.56
2022-09-17T10:21:20.959Z,99469.34
2022-09-17T10:23:48.706Z,99469.44
2022-09-17T10:26:22.833Z,99461.97
2022-09-17T10:28:52.824Z,99455.59
2022-09-17T10:31:20.854Z,99451.50
2022-09-17T10:33:57.482Z,99454.50
2022-09-17T10:36:42.192Z,99443.16
2022-09-17T10:39:21.099Z,99443.69
2022-09-17T10:41:54.886Z,99448.69
2022-09-17T10:44:25.334Z,99448.38
2022-09-17T10:46:53.391Z,99444.75
2022-09-17T10:49:32.451Z,99445.09
2022-09-17T10:52:12.461Z,99436.50
2022-09-17T10:55:06.143Z,99436.28
2022-09-17T10:57:55.074Z,99430.56
2022-09-17T11:00:24.589Z,99431.03
2022-09-17T11:03:24.397Z,99425.22
2022-09-17T11:06:15.506Z,99425.84
2022-09-17T11:08:49.631Z,99428.47
2022-09-17T11:11:19.988Z,99436.47
2022-09-17T11:13:53.211Z,99463.19
2022-09-17T11:16:35.531Z,99467.19
2022-09-17T11:19:11.987Z,99460.81
2022-09-17T11:21:46.663Z,99449.81
2022-09-17T11:24:48.269Z,99446.03
2022-09-17T11:27:35.719Z,99448.69
2022-09-17T11:30:06.168Z,99445.41
2022-09-17T11:33:03.938Z,99445.34
2022-09-17T11:35:33.445Z,99436.44
2022-09-17T11:38:04.969Z,99426.78
2022-09-17T11:40:37.714Z,99428.13
2022-09-17T11:43:08.447Z,99424.28
2022-09-17T11:45:39.376Z,99433.78
2022-09-17T11:48:12.537Z,99429.31
2022-09-17T11:50:43.612Z,99426.53
2022-09-17T11:53:16.572Z,99420.78
2022-09-17T11:55:48.450Z,99419.31
2022-09-17T11:58:20.625Z,99410.63
2022-09-17T12:00:52.223Z,99412.13
2022-09-17T12:03:26.843Z,99396.53
2022-09-17T12:05:56.369Z,99407.38
2022-09-17T12:08:27.157Z,99399.75
2022-09-17T12:10:59.921Z,99406.59
2022-09-17T12:13:32.153Z,99404.72
2022-09-17T12:16:10.757Z,99406.56
2022-09-17T12:18:47.926Z,99398.75
2022-09-17T12:21:18.809Z,99396.94
2022-09-17T12:23:49.391Z,99390.47
2022-09-17T12:26:35.297Z,99385.00
2022-09-17T12:29:06.884Z,99395.47
2022-09-17T12:31:44.520Z,99380.41
2022-09-17T12:34:23.732Z,99379.22
2022-09-17T12:36:52.702Z,99382.06
2022-09-17T12:39:51.319Z,99386.84
2022-09-17T12:42:31.204Z,99380.63
2022-09-17T12:45:17.018Z,99388.69
2022-09-17T12:48:22.700Z,99382.06
2022-09-17T12:50:59.761Z,99378.31
2022-09-17T12:53:30.561Z,99384.97
2022-09-17T12:56:07.216Z,99385.41
2022-09-17T12:58:44.263Z,99384.53
2022-09-17T13:01:15.280Z,99393.31
2022-09-17T13:03:45.630Z,99382.47
2022-09-17T13:06:36.133Z,99389.81
2022-09-17T13:09:11.366Z,99387.75
2022-09-17T13:12:07.726Z,99378.69
2022-09-17T13:14:51.742Z,99380.25
2022-09-17T13:17:23.989Z,99378.84
2022-09-17T13:20:00.441Z,99382.13
2022-09-17T13:22:33.412Z,99385.00
2022-09-17T13:25:06.577Z,99388.69
2022-09-17T13:27:38.597Z,99369.50
2022-09-17T13:30:07.681Z,99351.63
2022-09-17T13:32:55.031Z,99369.19
2022-09-17T13:35:50.812Z,99363.34
2022-09-17T13:38:23.796Z,99362.94
2022-09-17T13:40:52.093Z,99361.25
2022-09-17T13:43:23.970Z,99358.44
2022-09-17T13:46:12.596Z,99382.34
2022-09-17T13:49:01.954Z,99386.25
2022-09-17T13:51:59.385Z,99383.09
2022-09-17T13:54:38.792Z,99384.00
2022-09-17T13:57:14.141Z,99391.41
2022-09-17T13:59:54.805Z,99400.31
2022-09-17T14:02:36.566Z,99390.63
2022-09-17T14:05:34.257Z,99395.91
2022-09-17T14:08:30.418Z,99400.22
2022-09-17T14:11:02.542Z,99403.94
2022-09-17T14:13:42.982Z,99406.28
2022-09-17T14:16:45.877Z,99408.59
2022-09-17T14:19:30.515Z,99402.34
2022-09-17T14:22:03.693Z,99409.06
2022-09-17T14:24:36.252Z,99396.38
2022-09-17T14:27:27.199Z,99404.03
2022-09-17T14:30:05.303Z,99404.84
2022-09-17T14:32:39.402Z,99410.22
2022-09-17T14:35:19.905Z,99409.28
2022-09-17T14:37:51.953Z,99397.31
2022-09-17T14:40:21.002Z,99392.25
2022-09-17T14:42:55.053Z,99392.66
2022-09-17T14:45:25.098Z,99386.84
2022-09-17T14:48:21.087Z,99394.16
2022-09-17T14:50:48.670Z,99399.34
2022-09-17T14:53:18.830Z,99401.19
2022-09-17T14:55:47.690Z,99389.56
2022-09-17T14:58:32.269Z,99402.91
2022-09-17T15:00:59.945Z,99402.31
2022-09-17T15:03:27.656Z,99402.78
2022-09-17T15:05:55.429Z,99408.06
2022-09-17T15:08:24.433Z,99397.84
2022-09-17T15:10:54.318Z,99402.75
2022-09-17T15:13:26.576Z,99387.28
2022-09-17T15:15:59.077Z,99388.91
2022-09-17T15:18:33.852Z,99385.78
2022-09-17T15:21:03.498Z,99396.44
2022-09-17T15:23:32.475Z,99383.69
2022-09-17T15:26:00.501Z,99389.50
2022-09-17T15:28:30.798Z,99383.88
2022-09-17T15:30:59.701Z,99385.28
2022-09-17T15:33:27.819Z,99385.47
2022-09-17T15:36:10.056Z,99384.38
2022-09-17T15:38:39.202Z,99393.31
2022-09-17T15:41:24.455Z,99393.13
2022-09-17T15:43:54.669Z,99373.47
2022-09-17T15:46:30.123Z,99390.16
2022-09-17T15:48:59.609Z,99386.47
2022-09-17T15:51:28.670Z,99388.81
2022-09-17T15:53:58.963Z,99385.53
2022-09-17T15:56:29.141Z,99397.06
2022-09-17T15:59:00.846Z,99394.03
2022-09-17T16:01:54.867Z,99400.94
2022-09-17T16:04:28.754Z,99392.38
2022-09-17T16:06:58.929Z,99398.78
2022-09-17T16:09:53.819Z,99401.06
2022-09-17T16:12:22.967Z,99405.97
2022-09-17T16:14:52.371Z,99394.69
2022-09-17T16:17:25.837Z,99394.69
2022-09-17T16:19:55.677Z,99406.00
2022-09-17T16:22:23.495Z,99410.09
2022-09-17T16:24:50.938Z,99404.56
2022-09-17T16:27:22.083Z,99412.56
2022-09-17T16:29:50.289Z,99407.66
2022-09-17T16:32:17.794Z,99413.41
2022-09-17T16:34:45.254Z,99417.09
2022-09-17T16:37:14.101Z,99425.72
2022-09-17T16:39:41.803Z,99422.88
2022-09-17T16:42:09.279Z,99436.84
2022-09-17T16:44:36.887Z,99438.47
2022-09-17T16:47:04.584Z,99436.44
2022-09-17T16:49:32.125Z,99442.78
2022-09-17T16:51:59.604Z,99442.97
2022-09-17T16:54:28.454Z,99443.16
2022-09-17T16:56:56.454Z,99458.59
2022-09-17T16:59:26.259Z,99456.75
2022-09-17T17:01:53.800Z,99464.78
2022-09-17T17:04:21.424Z,99467.44
2022-09-17T17:06:48.938Z,99463.94
2022-09-17T17:09:16.647Z,99461.63
2022-09-17T17:11:51.789Z,99466.72
2022-09-17T17:14:19.542Z,99468.97
2022-09-17T17:16:47.155Z,99468.69
2022-09-17T17:19:14.733Z,99467.44
2022-09-17T17:21:47.155Z,99468.22
2022-09-17T17:24:14.896Z,99471.06
2022-09-17T17:26:42.380Z,99473.72
2022-09-17T17:29:14.412Z,99468.78
2022-09-17T17:31:42.310Z,99466.03
2022-09-17T17:34:10.452Z,99467.91
2022-09-17T17:36:37.896Z,99471.94
2022-09-17T17:39:05.384Z,99469.44
2022-09-17T17:41:32.927Z,99475.06
2022-09-17T17:44:00.503Z,99475.25
2022-09-17T17:46:29.341Z,99474.13
2022-09-17T17:48:56.971Z,99481.72
2022-09-17T17:51:27.465Z,99475.03
2022-09-17T17:53:54.902Z,99485.72
2022-09-17T17:56:23.376Z,99499.47
2022-09-17T17:58:55.085Z,99496.50
2022-09-17T18:01:24.845Z,99502.28
2022-09-17T18:03:56.986Z,99500.78
2022-09-17T18:06:28.061Z,99508.44
2022-09-17T18:08:56.195Z,99516.03
2022-09-17T18:11:24.470Z,99511.97
2022-09-17T18:13:52.765Z,99510.50
2022-09-17T18:16:20.343Z,99510.38
2022-09-17T18:18:48.200Z,99510.19
2022-09-17T18:21:18.949Z,99519.44
2022-09-17T18:23:46.721Z,99518.69
2022-09-17T18:26:15.392Z,99517.13
2022-09-17T18:28:42.924Z,99533.94
2022-09-17T18:31:12.740Z,99537.72
2022-09-17T18:33:40.250Z,99543.22
2022-09-17T18:36:07.803Z,99527.84
2022-09-17T18:38:39.427Z,99542.81
2022-09-17T18:41:08.475Z,99546.63
2022-09-17T18:43:35.975Z,99531.09
2022-09-17T18:46:05.365Z,99552.88
2022-09-17T18:48:36.289Z,99564.72
2022-09-17T18:51:06.171Z,99554.38
2022-09-17T18:53:37.010Z,99555.78
2022-09-17T18:56:06.595Z,99568.66
2022-09-17T18:58:34.894Z,99566.00
2022-09-17T19:01:05.879Z,99562.16
2022-09-17T19:03:33.373Z,99570.22
2022-09-17T19:06:01.200Z,99573.56
2022-09-17T19:08:28.701Z,99568.09
2022-09-17T19:10:57.775Z,99584.09
2022-09-17T19:13:27.059Z,99589.16
2022-09-17T19:15:59.074Z,99595.88
2022-09-17T19:18:26.670Z,99597.16
2022-09-17T19:21:00.085Z,99598.56
2022-09-17T19:23:27.534Z,99595.13
2022-09-17T19:25:55.041Z,99598.06
2022-09-17T19:28:23.993Z,99589.16
2022-09-17T19:30:51.569Z,99601.50
2022-09-17T19:33:19.115Z,99587.16
2022-09-17T19:35:46.698Z,99583.91
2022-09-17T19:38:14.181Z,99605.06
2022-09-17T19:40:41.810Z,99612.06
2022-09-17T19:43:09.318Z,99606.06
2022-09-17T19:45:38.277Z,99601.28
2022-09-17T19:48:05.751Z,99603.00
2022-09-17T19:50:33.253Z,99613.28
2022-09-17T19:53:00.752Z,99614.78
2022-09-17T19:55:28.218Z,99605.00
2022-09-17T19:57:55.686Z,99609.31
2022-09-17T20:00:23.274Z,99606.06
2022-09-17T20:02:52.327Z,99593.34
2022-09-17T20:05:19.805Z,99599.53
2022-09-17T20:07:47.904Z,99600.50
2022-09-17T20:10:15.531Z,99609.31
2022-09-17T20:12:43.047Z,99604.06
2022-09-17T20:15:11.496Z,99617.97
2022-09-17T20:17:39.017Z,99610.63
2022-09-17T20:20:09.694Z,99620.38
2022-09-17T20:22:37.215Z,99614.06
2022-09-17T20:25:05.323Z,99614.03
2022-09-17T20:27:33.165Z,99614.59
2022-09-17T20:30:00.652Z,99612.94
2022-09-17T20:32:28.552Z,99623.13
2022-09-17T20:34:56.071Z,99599.56
2022-09-17T20:38:01.684Z,99617.19
2022-09-17T20:40:12.506Z,99623.22
2022-09-17T20:42:40.121Z,99618.69
2022-09-17T20:45:08.316Z,99627.25
2022-09-17T20:47:36.504Z,99623.13
2022-09-17T20:50:04.004Z,99622.91
2022-09-17T20:52:33.250Z,99622.38
2022-09-17T20:55:00.739Z,99628.63
2022-09-17T20:57:28.233Z,99625.16
2022-09-17T21:00:00.249Z,99629.72
2022-09-17T21:02:28.116Z,99627.25
2022-09-17T21:04:55.662Z,99621.00
2022-09-17T21:07:23.193Z,99618.06
2022-09-17T21:09:52.022Z,99630.28
2022-09-17T21:12:20.807Z,99631.84
2022-09-17T21:14:49.766Z,99608.28
2022-09-17T21:17:17.380Z,99633.31
2022-09-17T21:19:44.950Z,99635.03
2022-09-17T21:22:12.394Z,99621.19
2022-09-17T21:24:39.890Z,99632.75
2022-09-17T21:27:09.269Z,99635.47
2022-09-17T21:29:36.759Z,99630.72
2022-09-17T21:32:04.258Z,99632.75
2022-09-17T21:34:31.727Z,99634.38
2022-09-17T21:36:59.225Z,99627.06
2022-09-17T21:39:26.698Z,99621.75
2022-09-17T21:41:54.545Z,99626.34
2022-09-17T21:44:23.454Z,99613.78
2022-09-17T21:46:57.080Z,99610.38
2022-09-17T21:49:24.760Z,99615.66
2022-09-17T21:51:52.302Z,99617.81
2022-09-17T21:54:19.961Z,99622.94
2022-09-17T21:56:47.834Z,99628.59
2022-09-17T21:59:16.301Z,99627.88
2022-09-17T22:01:50.175Z,99619.56
2022-09-17T22:04:19.511Z,99629.53
2022-09-17T22:06:47.943Z,99629.53
2022-09-17T22:09:17.913Z,99633.31
2022-09-17T22:11:45.392Z,99634.97
2022-09-17T22:14:14.573Z,99637.97
2022-09-17T22:16:45.070Z,99637.69
2022-09-17T22:19:15.033Z,99636.69
2022-09-17T22:21:44.547Z,99627.25
2022-09-17T22:24:12.333Z,99627.75
2022-09-17T22:26:43.227Z,99630.72
2022-09-17T22:29:12.639Z,99622.59
2022-09-17T22:31:40.927Z,99626.03
2022-09-17T22:34:11.001Z,99630.41
2022-09-17T22:36:39.428Z,99636.06
2022-09-17T22:39:09.280Z,99624.66
2022-09-17T22:41:39.083Z,99632.56
2022-09-17T22:44:08.054Z,99636.31
2022-09-17T22:46:39.029Z,99641.72
2022-09-17T22:49:07.221Z,99634.03
2022-09-17T22:51:36.394Z,99634.56
2022-09-17T22:54:04.472Z,99635.22
2022-09-17T22:56:32.041Z,99629.25
2022-09-17T22:58:59.895Z,99630.41
2022-09-17T23:01:29.698Z,99635.94
2022-09-17T23:03:57.951Z,99637.13
2022-09-17T23:06:27.070Z,99629.25
2022-09-17T23:08:56.438Z,99626.66
2022-09-17T23:11:26.409Z,99627.00
2022-09-17T23:13:57.474Z,99628.47
2022-09-17T23:16:25.944Z,99631.38
2022-09-17T23:18:53.541Z,99620.91
2022-09-17T23:21:21.622Z,99627.44
2022-09-17T23:23:52.250Z,99615.19
2022-09-17T23:26:22.833Z,99622.25
2022-09-17T23:28:51.263Z,99621.34
2022-09-17T23:31:20.975Z,99632.19
2022-09-17T23:33:49.070Z,99623.38
2022-09-17T23:36:19.218Z,99625.03
2022-09-17T23:38:47.896Z,99633.53
2022-09-17T23:41:16.999Z,99624.00
2022-09-17T23:43:48.972Z,99623.16
2022-09-17T23:46:16.900Z,99623.88
2022-09-17T23:48:44.815Z,99622.22
2022-09-17T23:51:12.348Z,99598.47
2022-09-17T23:53:39.941Z,99622.84
2022-09-17T23:56:13.110Z,99630.25
2022-09-17T23:58:40.678Z,99628.31
